createdAt,value
2019-03-06T00:01:10.748Z,4.00
2019-03-06T00:03:42.685Z,4.40
2019-03-06T00:06:16.707Z,4.20
2019-03-06T00:08:43.384Z,4.10
2019-03-06T00:11:12.986Z,4.40
2019-03-06T00:13:42.256Z,4.60
2019-03-06T00:16:11.508Z,4.90
2019-03-06T00:18:41.980Z,4.57
2019-03-06T00:21:11.226Z,4.93
2019-03-06T00:23:41.091Z,4.63
2019-03-06T00:26:10.345Z,5.23
2019-03-06T00:28:39.586Z,4.73
2019-03-06T00:31:08.826Z,4.80
2019-03-06T00:33:38.073Z,4.93
2019-03-06T00:36:11.910Z,5.30
2019-03-06T00:38:41.138Z,4.83
2019-03-06T00:41:35.253Z,5.37
2019-03-06T00:44:05.043Z,5.57
2019-03-06T00:46:34.287Z,5.73
2019-03-06T00:49:04.602Z,5.20
2019-03-06T00:51:33.914Z,5.57
2019-03-06T00:54:04.290Z,5.80
2019-03-06T00:56:33.907Z,5.50
2019-03-06T00:59:03.465Z,5.60
2019-03-06T01:01:32.758Z,5.60
2019-03-06T01:04:02.862Z,5.83
2019-03-06T01:06:32.383Z,5.37
2019-03-06T01:09:01.596Z,5.80
2019-03-06T01:11:30.839Z,5.47
2019-03-06T01:14:00.077Z,6.17
2019-03-06T01:16:30.153Z,5.80
2019-03-06T01:18:59.678Z,6.20
2019-03-06T01:21:32.534Z,5.30
2019-03-06T01:24:02.002Z,5.50
2019-03-06T01:26:32.395Z,5.70
2019-03-06T01:29:02.515Z,5.53
2019-03-06T01:31:31.763Z,5.47
2019-03-06T01:34:38.259Z,5.47
2019-03-06T01:37:29.364Z,5.53
2019-03-06T01:40:09.434Z,5.80
2019-03-06T01:42:45.377Z,5.50
2019-03-06T01:45:14.782Z,5.17
2019-03-06T01:47:44.038Z,5.43
2019-03-06T01:50:15.835Z,5.77
2019-03-06T01:52:45.634Z,6.17
2019-03-06T01:55:16.024Z,6.10
2019-03-06T01:57:45.275Z,6.57
2019-03-06T02:00:17.601Z,6.63
2019-03-06T02:02:47.041Z,6.93
2019-03-06T02:05:17.515Z,6.73
2019-03-06T02:07:48.485Z,6.80
2019-03-06T02:10:18.876Z,7.30
2019-03-06T02:12:51.170Z,8.40
2019-03-06T02:15:20.555Z,9.00
2019-03-06T02:17:49.840Z,10.07
2019-03-06T02:20:21.010Z,10.20
2019-03-06T02:22:50.289Z,10.37
2019-03-06T02:25:19.596Z,11.20
2019-03-06T02:27:48.887Z,11.27
2019-03-06T02:30:20.252Z,11.40
2019-03-06T02:32:51.119Z,12.20
2019-03-06T02:35:20.646Z,12.20
2019-03-06T02:37:50.937Z,11.60
2019-03-06T02:40:20.223Z,11.50
2019-03-06T02:42:49.764Z,12.33
2019-03-06T02:45:19.032Z,11.77
2019-03-06T02:47:48.347Z,12.13
2019-03-06T02:50:17.591Z,12.20
2019-03-06T02:52:48.255Z,12.17
2019-03-06T02:55:17.752Z,12.10
2019-03-06T02:58:10.349Z,11.83
2019-03-06T03:00:59.512Z,12.50
2019-03-06T03:03:51.608Z,11.97
2019-03-06T03:06:26.444Z,12.70
2019-03-06T03:08:58.739Z,12.47
2019-03-06T03:11:27.972Z,12.53
2019-03-06T03:13:57.304Z,13.33
2019-03-06T03:16:29.121Z,13.27
2019-03-06T03:18:58.400Z,13.33
2019-03-06T03:21:28.021Z,12.87
2019-03-06T03:23:59.018Z,12.10
2019-03-06T03:26:29.709Z,12.00
2019-03-06T03:28:58.954Z,12.43
2019-03-06T03:31:29.113Z,12.93
2019-03-06T03:33:58.352Z,12.70
2019-03-06T03:36:29.359Z,12.87
2019-03-06T03:38:59.643Z,12.00
2019-03-06T03:41:29.335Z,12.90
2019-03-06T03:43:58.758Z,12.17
2019-03-06T03:46:28.011Z,11.83
2019-03-06T03:48:59.462Z,12.03
2019-03-06T03:51:30.722Z,11.53
2019-03-06T03:53:59.971Z,11.53
2019-03-06T03:56:29.244Z,11.23
2019-03-06T03:58:59.246Z,11.77
2019-03-06T04:01:28.502Z,11.53
2019-03-06T04:03:57.745Z,12.07
2019-03-06T04:06:28.053Z,12.00
2019-03-06T04:08:58.977Z,12.23
2019-03-06T04:11:28.231Z,12.50
2019-03-06T04:13:57.808Z,12.53
2019-03-06T04:16:27.434Z,12.13
2019-03-06T04:18:56.673Z,11.87
2019-03-06T04:21:26.214Z,12.33
2019-03-06T04:24:00.173Z,12.63
2019-03-06T04:26:29.756Z,12.67
2019-03-06T04:29:01.470Z,12.70
2019-03-06T04:31:33.014Z,13.30
2019-03-06T04:34:02.246Z,13.60
2019-03-06T04:36:31.502Z,13.90
2019-03-06T04:39:03.907Z,13.20
2019-03-06T04:41:34.047Z,14.00
2019-03-06T04:44:03.278Z,13.93
2019-03-06T04:46:33.398Z,13.57
2019-03-06T04:49:02.692Z,13.63
2019-03-06T04:51:31.976Z,14.20
2019-03-06T04:54:01.266Z,14.00
2019-03-06T04:56:30.875Z,14.47
2019-03-06T04:59:00.121Z,14.63
2019-03-06T05:01:30.574Z,15.07
2019-03-06T05:04:00.214Z,15.40
2019-03-06T05:06:29.835Z,16.80
2019-03-06T05:09:03.566Z,15.67
2019-03-06T05:11:33.338Z,15.77
2019-03-06T05:14:02.982Z,15.40
2019-03-06T05:17:09.415Z,15.57
2019-03-06T05:19:38.924Z,15.30
2019-03-06T05:22:08.834Z,15.90
2019-03-06T05:24:38.065Z,15.80
2019-03-06T05:27:07.348Z,16.03
2019-03-06T05:29:36.817Z,15.87
2019-03-06T05:32:44.846Z,16.40
2019-03-06T05:35:54.705Z,16.47
2019-03-06T05:38:35.035Z,16.93
2019-03-06T05:41:04.302Z,17.50
2019-03-06T05:43:34.844Z,17.77
2019-03-06T05:46:07.672Z,16.97
2019-03-06T05:48:36.941Z,17.37
2019-03-06T05:51:06.194Z,17.37
2019-03-06T05:53:36.642Z,16.83
2019-03-06T05:56:06.776Z,16.17
2019-03-06T05:58:36.112Z,16.03
2019-03-06T06:01:05.607Z,15.60
2019-03-06T06:03:34.869Z,15.17
2019-03-06T06:06:04.513Z,15.23
2019-03-06T06:08:34.424Z,14.63
2019-03-06T06:11:03.896Z,14.60
2019-03-06T06:13:33.215Z,14.13
2019-03-06T06:16:02.440Z,13.00
2019-03-06T06:18:31.972Z,13.83
2019-03-06T06:21:29.357Z,13.83
2019-03-06T06:24:02.261Z,13.40
2019-03-06T06:26:31.484Z,13.23
2019-03-06T06:29:00.737Z,12.90
2019-03-06T06:31:30.638Z,12.27
2019-03-06T06:34:01.032Z,12.27
2019-03-06T06:36:30.446Z,11.60
2019-03-06T06:38:59.711Z,12.23
2019-03-06T06:41:31.506Z,11.23
2019-03-06T06:44:05.797Z,11.87
2019-03-06T06:46:35.136Z,11.03
2019-03-06T06:49:04.385Z,11.63
2019-03-06T06:52:09.422Z,11.30
2019-03-06T06:55:25.710Z,11.17
2019-03-06T06:58:38.461Z,11.37
2019-03-06T07:01:46.371Z,10.70
2019-03-06T07:04:57.435Z,10.53
2019-03-06T07:07:51.571Z,9.43
2019-03-06T07:10:37.474Z,10.73
2019-03-06T07:13:15.869Z,11.00
2019-03-06T07:16:04.327Z,11.63
2019-03-06T07:18:55.300Z,12.57
2019-03-06T07:21:39.719Z,12.13
2019-03-06T07:24:43.031Z,11.83
2019-03-06T07:27:40.940Z,14.17
2019-03-06T07:30:28.529Z,14.40
2019-03-06T07:33:19.584Z,14.27
2019-03-06T07:36:21.212Z,13.97
2019-03-06T07:38:55.461Z,13.13
2019-03-06T07:41:46.817Z,13.00
2019-03-06T07:44:37.967Z,13.20
2019-03-06T07:50:29.165Z,12.93
2019-03-06T07:53:53.519Z,12.43
2019-03-06T07:56:31.722Z,12.20
2019-03-06T07:59:01.325Z,10.90
2019-03-06T08:01:33.459Z,8.07
2019-03-06T08:04:17.705Z,8.53
2019-03-06T08:06:51.448Z,8.57
2019-03-06T08:09:23.209Z,9.63
2019-03-06T08:12:05.267Z,8.90
2019-03-06T08:14:55.557Z,10.67
2019-03-06T08:17:36.510Z,10.33
2019-03-06T08:20:37.694Z,9.40
2019-03-06T08:23:27.876Z,8.87
2019-03-06T08:25:59.164Z,9.50
2019-03-06T08:28:28.383Z,9.53
2019-03-06T08:31:23.216Z,9.50
2019-03-06T08:33:55.146Z,8.53
2019-03-06T08:36:25.617Z,8.97
2019-03-06T08:38:54.834Z,8.50
2019-03-06T08:41:25.587Z,8.10
2019-03-06T08:43:55.999Z,8.47
2019-03-06T08:46:53.291Z,8.03
2019-03-06T08:49:41.817Z,8.27
2019-03-06T08:52:48.465Z,7.20
2019-03-06T08:55:48.662Z,8.10
2019-03-06T08:58:35.509Z,8.17
2019-03-06T09:02:01.232Z,6.70
2019-03-06T09:05:02.450Z,6.87
2019-03-06T09:08:01.108Z,7.20
2019-03-06T09:10:49.596Z,6.50
2019-03-06T09:13:43.645Z,6.57
2019-03-06T09:16:30.936Z,6.90
2019-03-06T09:19:17.824Z,6.00
2019-03-06T09:22:03.259Z,6.13
2019-03-06T09:25:09.856Z,6.80
2019-03-06T09:27:44.859Z,6.20
2019-03-06T09:30:44.590Z,5.90
2019-03-06T09:33:28.726Z,5.80
2019-03-06T09:36:15.429Z,5.97
2019-03-06T09:39:00.876Z,6.67
2019-03-06T09:41:55.307Z,5.93
2019-03-06T09:44:43.985Z,8.23
2019-03-06T09:47:22.541Z,6.20
2019-03-06T09:50:29.114Z,5.40
2019-03-06T09:53:20.096Z,5.47
2019-03-06T09:55:56.357Z,5.97
2019-03-06T09:58:36.573Z,5.90
2019-03-06T10:01:36.832Z,5.90
2019-03-06T10:04:14.965Z,6.10
2019-03-06T10:07:04.036Z,5.70
2019-03-06T10:09:58.828Z,5.07
2019-03-06T10:12:48.101Z,5.13
2019-03-06T10:15:51.499Z,5.40
2019-03-06T10:18:43.594Z,5.37
2019-03-06T10:21:12.823Z,4.90
2019-03-06T10:23:42.070Z,4.97
2019-03-06T10:26:11.307Z,5.13
2019-03-06T10:28:41.935Z,4.97
2019-03-06T10:31:13.954Z,4.90
2019-03-06T10:33:43.221Z,4.50
2019-03-06T10:36:15.340Z,4.97
2019-03-06T10:38:45.033Z,5.37
2019-03-06T10:41:14.635Z,4.80
2019-03-06T10:43:49.629Z,4.30
2019-03-06T10:46:18.475Z,4.57
2019-03-06T10:48:49.611Z,4.40
2019-03-06T10:51:19.218Z,4.33
2019-03-06T10:53:49.152Z,4.37
2019-03-06T10:56:18.563Z,4.20
2019-03-06T10:58:47.916Z,4.63
2019-03-06T11:01:17.362Z,4.00
2019-03-06T11:03:56.352Z,4.03
2019-03-06T11:06:25.771Z,4.30
2019-03-06T11:08:56.742Z,4.20
2019-03-06T11:11:29.052Z,4.23
2019-03-06T11:14:05.906Z,3.83
2019-03-06T11:16:29.784Z,3.97
2019-03-06T11:19:00.821Z,3.50
2019-03-06T11:21:30.422Z,3.87
2019-03-06T11:23:59.676Z,3.60
2019-03-06T11:26:29.208Z,3.60
2019-03-06T11:29:03.010Z,3.80
2019-03-06T11:31:33.149Z,3.53
2019-03-06T11:34:02.391Z,3.60
2019-03-06T11:36:31.792Z,3.60
2019-03-06T11:39:01.100Z,3.80
2019-03-06T11:41:32.010Z,3.33
2019-03-06T11:44:01.289Z,3.97
2019-03-06T11:46:30.625Z,3.20
2019-03-06T11:49:01.051Z,2.90
2019-03-06T11:51:32.046Z,3.07
2019-03-06T11:54:01.314Z,3.37
2019-03-06T11:56:32.879Z,2.87
2019-03-06T11:59:02.104Z,3.00
2019-03-06T12:01:32.753Z,3.00
2019-03-06T12:04:01.972Z,2.70
2019-03-06T12:06:31.236Z,2.30
2019-03-06T12:09:02.091Z,2.80
2019-03-06T12:11:33.988Z,2.40
2019-03-06T12:14:03.295Z,2.47
2019-03-06T12:16:41.588Z,2.67
2019-03-06T12:19:04.660Z,2.97
2019-03-06T12:21:33.961Z,3.00
2019-03-06T12:24:03.498Z,2.77
2019-03-06T12:26:34.334Z,2.70
2019-03-06T12:29:06.124Z,3.07
2019-03-06T12:31:35.422Z,2.97
2019-03-06T12:34:04.808Z,3.00
2019-03-06T12:36:36.094Z,3.30
2019-03-06T12:39:05.864Z,2.80
2019-03-06T12:41:35.143Z,3.00
2019-03-06T12:44:10.316Z,2.60
2019-03-06T12:46:37.004Z,2.50
2019-03-06T12:49:10.521Z,2.83
2019-03-06T12:51:39.792Z,2.60
2019-03-06T12:54:09.819Z,2.90
2019-03-06T12:56:39.085Z,2.83
2019-03-06T12:59:08.740Z,2.80
2019-03-06T13:01:39.827Z,2.50
2019-03-06T13:04:10.787Z,2.50
2019-03-06T13:06:45.799Z,2.50
2019-03-06T13:09:20.802Z,2.40
2019-03-06T13:11:55.439Z,2.53
2019-03-06T13:14:25.063Z,2.37
2019-03-06T13:17:05.387Z,2.67
2019-03-06T13:19:34.653Z,2.30
2019-03-06T13:22:11.160Z,2.50
2019-03-06T13:24:35.699Z,2.60
2019-03-06T13:27:04.978Z,2.30
2019-03-06T13:29:37.698Z,2.30
2019-03-06T13:32:11.950Z,2.60
2019-03-06T13:34:53.908Z,2.30
2019-03-06T13:37:26.955Z,3.00
2019-03-06T13:39:56.223Z,2.23
2019-03-06T13:42:27.440Z,2.40
2019-03-06T13:44:56.680Z,2.40
2019-03-06T13:47:26.565Z,2.40
2019-03-06T13:49:58.419Z,2.67
2019-03-06T13:52:37.725Z,2.33
2019-03-06T13:55:09.404Z,2.27
2019-03-06T13:57:38.668Z,2.73
2019-03-06T14:00:12.824Z,2.70
2019-03-06T14:02:42.113Z,2.93
2019-03-06T14:05:11.877Z,2.57
2019-03-06T14:07:43.456Z,2.13
2019-03-06T14:10:14.537Z,2.10
2019-03-06T14:12:46.904Z,2.40
2019-03-06T14:15:18.068Z,2.50
2019-03-06T14:17:47.621Z,2.50
2019-03-06T14:20:18.835Z,2.53
2019-03-06T14:22:48.118Z,2.27
2019-03-06T14:25:22.211Z,2.63
2019-03-06T14:27:51.948Z,2.70
2019-03-06T14:30:21.834Z,2.50
2019-03-06T14:32:51.997Z,2.70
2019-03-06T14:35:21.675Z,2.87
2019-03-06T14:37:51.438Z,2.60
2019-03-06T14:40:26.651Z,2.40
2019-03-06T14:42:56.770Z,2.80
2019-03-06T14:45:26.377Z,2.50
2019-03-06T14:47:58.669Z,2.50
2019-03-06T14:50:30.309Z,2.20
2019-03-06T14:53:00.106Z,2.30
2019-03-06T14:55:29.669Z,2.40
2019-03-06T14:57:58.943Z,2.20
2019-03-06T15:00:28.345Z,2.33
2019-03-06T15:02:57.736Z,2.40
2019-03-06T15:05:29.121Z,2.30
2019-03-06T15:07:58.408Z,2.10
2019-03-06T15:10:27.691Z,2.17
2019-03-06T15:12:57.773Z,2.13
2019-03-06T15:15:27.332Z,2.10
2019-03-06T15:17:56.380Z,2.10
2019-03-06T15:20:26.547Z,2.13
2019-03-06T15:22:58.819Z,2.20
2019-03-06T15:25:31.732Z,2.00
2019-03-06T15:28:03.449Z,2.00
2019-03-06T15:30:32.735Z,1.93
2019-03-06T15:33:02.643Z,1.70
2019-03-06T15:35:33.148Z,1.83
2019-03-06T15:38:11.516Z,2.00
2019-03-06T15:40:43.098Z,2.00
2019-03-06T15:43:15.382Z,2.30
2019-03-06T15:45:44.658Z,1.90
2019-03-06T15:48:18.119Z,1.80
2019-03-06T15:50:47.789Z,1.80
2019-03-06T15:53:24.489Z,2.00
2019-03-06T15:55:51.663Z,1.90
2019-03-06T15:58:23.209Z,1.90
2019-03-06T16:00:57.731Z,1.80
2019-03-06T16:03:26.952Z,1.63
2019-03-06T16:05:56.320Z,1.60
2019-03-06T16:08:27.543Z,2.50
2019-03-06T16:10:57.168Z,6.90
2019-03-06T16:13:26.963Z,4.80
2019-03-06T16:15:57.461Z,15.87
2019-03-06T16:18:27.817Z,4.33
2019-03-06T16:20:57.082Z,1.90
2019-03-06T16:23:26.302Z,1.90
2019-03-06T16:25:57.410Z,1.70
2019-03-06T16:28:26.676Z,1.60
2019-03-06T16:30:56.003Z,1.80
2019-03-06T16:33:31.596Z,1.90
2019-03-06T16:36:00.895Z,1.90
2019-03-06T16:38:30.147Z,1.67
2019-03-06T16:41:00.103Z,1.57
2019-03-06T16:43:29.375Z,1.73
2019-03-06T16:45:58.627Z,1.70
2019-03-06T16:48:27.832Z,1.43
2019-03-06T16:50:57.125Z,1.63
2019-03-06T16:53:26.343Z,1.70
2019-03-06T16:55:55.593Z,1.80
2019-03-06T16:58:27.883Z,1.80
2019-03-06T17:00:58.461Z,3.40
2019-03-06T17:03:29.433Z,10.53
2019-03-06T17:06:01.153Z,22.13
2019-03-06T17:08:32.065Z,17.50
2019-03-06T17:11:01.331Z,27.87
2019-03-06T17:13:31.099Z,15.87
2019-03-06T17:16:00.871Z,5.47
2019-03-06T17:18:31.973Z,4.60
2019-03-06T17:21:01.224Z,5.33
2019-03-06T17:23:30.793Z,3.10
2019-03-06T17:26:00.069Z,2.30
2019-03-06T17:28:29.284Z,2.57
2019-03-06T17:30:59.422Z,2.50
2019-03-06T17:33:28.818Z,2.40
2019-03-06T17:35:58.119Z,3.00
2019-03-06T17:38:30.608Z,4.70
2019-03-06T17:40:59.902Z,4.60
2019-03-06T17:43:29.527Z,5.23
2019-03-06T17:45:59.640Z,2.90
2019-03-06T17:48:30.953Z,2.90
2019-03-06T17:51:00.899Z,2.50
2019-03-06T17:53:30.810Z,2.77
2019-03-06T17:56:00.547Z,2.63
2019-03-06T17:58:30.432Z,2.93
2019-03-06T18:01:15.006Z,3.40
2019-03-06T18:04:03.667Z,4.50
2019-03-06T18:06:32.936Z,3.40
2019-03-06T18:09:02.765Z,2.50
2019-03-06T18:11:35.919Z,3.10
2019-03-06T18:14:05.158Z,2.33
2019-03-06T18:16:34.749Z,2.67
2019-03-06T18:19:03.973Z,2.87
2019-03-06T18:21:37.445Z,2.50
2019-03-06T18:24:08.084Z,2.80
2019-03-06T18:26:39.374Z,2.70
2019-03-06T18:29:08.686Z,2.70
2019-03-06T18:31:37.916Z,3.37
2019-03-06T18:34:08.530Z,3.00
2019-03-06T18:36:37.768Z,2.80
2019-03-06T18:39:18.005Z,2.80
2019-03-06T18:41:47.691Z,3.10
2019-03-06T18:44:16.941Z,2.77
2019-03-06T18:46:47.237Z,3.50
2019-03-06T18:49:16.530Z,3.17
2019-03-06T18:51:45.797Z,3.50
2019-03-06T18:54:15.014Z,3.43
2019-03-06T18:56:44.627Z,3.07
2019-03-06T18:59:15.391Z,2.70
2019-03-06T19:01:44.644Z,2.80
2019-03-06T19:04:14.258Z,2.77
2019-03-06T19:06:44.135Z,2.87
2019-03-06T19:09:13.394Z,2.90
2019-03-06T19:11:43.035Z,2.57
2019-03-06T19:14:12.290Z,2.70
2019-03-06T19:16:41.697Z,2.43
2019-03-06T19:19:13.674Z,2.70
2019-03-06T19:21:45.358Z,2.60
2019-03-06T19:24:14.570Z,2.77
2019-03-06T19:26:44.142Z,3.30
2019-03-06T19:29:14.365Z,3.40
2019-03-06T19:31:43.598Z,3.70
2019-03-06T19:34:13.173Z,3.90
2019-03-06T19:36:42.402Z,3.90
2019-03-06T19:39:11.623Z,4.17
2019-03-06T19:41:40.830Z,4.70
2019-03-06T19:44:10.094Z,4.53
2019-03-06T19:46:39.311Z,4.77
2019-03-06T19:49:08.982Z,4.20
2019-03-06T19:51:38.195Z,4.27
2019-03-06T19:54:07.445Z,4.17
2019-03-06T19:56:36.649Z,4.13
2019-03-06T19:59:05.905Z,4.23
2019-03-06T20:01:35.112Z,3.87
2019-03-06T20:04:04.724Z,3.57
2019-03-06T20:06:35.150Z,3.13
2019-03-06T20:09:09.882Z,3.47
2019-03-06T20:11:42.503Z,3.20
2019-03-06T20:14:13.665Z,2.70
2019-03-06T20:16:42.887Z,2.80
2019-03-06T20:19:12.600Z,3.10
2019-03-06T20:21:49.586Z,3.50
2019-03-06T20:24:18.897Z,3.87
2019-03-06T20:26:48.129Z,4.07
2019-03-06T20:29:17.671Z,3.60
2019-03-06T20:31:49.156Z,3.57
2019-03-06T20:34:18.819Z,3.30
2019-03-06T20:36:48.896Z,3.63
2019-03-06T20:39:19.093Z,3.53
2019-03-06T20:41:48.338Z,3.70
2019-03-06T20:44:17.949Z,3.33
2019-03-06T20:46:49.719Z,3.40
2019-03-06T20:49:19.839Z,3.40
2019-03-06T20:51:49.369Z,3.20
2019-03-06T20:54:18.631Z,2.97
2019-03-06T20:56:47.896Z,2.87
2019-03-06T20:59:20.149Z,3.00
2019-03-06T21:01:49.376Z,3.03
2019-03-06T21:04:20.212Z,2.90
2019-03-06T21:06:49.710Z,3.10
2019-03-06T21:09:19.209Z,2.40
2019-03-06T21:11:48.707Z,2.90
2019-03-06T21:14:17.981Z,2.80
2019-03-06T21:16:47.186Z,3.00
2019-03-06T21:19:16.425Z,3.10
2019-03-06T21:21:45.888Z,3.30
2019-03-06T21:24:17.459Z,2.73
2019-03-06T21:26:46.693Z,2.90
2019-03-06T21:29:15.940Z,3.20
2019-03-06T21:31:45.159Z,3.70
2019-03-06T21:34:16.148Z,3.37
2019-03-06T21:36:45.370Z,3.50
2019-03-06T21:39:36.777Z,3.40
2019-03-06T21:42:07.080Z,3.70
2019-03-06T21:44:37.511Z,3.67
2019-03-06T21:47:06.866Z,3.30
2019-03-06T21:49:36.352Z,3.20
2019-03-06T21:52:05.943Z,3.00
2019-03-06T21:54:37.881Z,3.07
2019-03-06T21:57:08.323Z,2.80
2019-03-06T21:59:37.564Z,2.60
2019-03-06T22:02:06.788Z,2.60
2019-03-06T22:04:36.340Z,2.77
2019-03-06T22:07:05.875Z,2.80
2019-03-06T22:09:42.181Z,2.80
2019-03-06T22:12:11.998Z,2.80
2019-03-06T22:14:41.226Z,2.80
2019-03-06T22:17:10.446Z,2.70
2019-03-06T22:19:39.695Z,2.80
2019-03-06T22:22:08.907Z,2.97
2019-03-06T22:24:38.168Z,2.93
2019-03-06T22:27:07.660Z,2.67
2019-03-06T22:29:36.911Z,3.13
2019-03-06T22:32:06.202Z,2.60
2019-03-06T22:34:35.464Z,2.93
2019-03-06T22:37:05.006Z,3.00
2019-03-06T22:39:34.265Z,3.07
2019-03-06T22:42:03.482Z,3.03
2019-03-06T22:44:33.645Z,3.10
2019-03-06T22:47:06.139Z,3.10
2019-03-06T22:49:35.383Z,3.10
2019-03-06T22:52:04.651Z,3.10
2019-03-06T22:54:33.911Z,3.07
2019-03-06T22:57:03.194Z,3.03
2019-03-06T22:59:32.414Z,3.13
2019-03-06T23:02:02.243Z,3.30
2019-03-06T23:04:32.536Z,3.73
2019-03-06T23:07:02.435Z,3.23
2019-03-06T23:09:31.670Z,3.67
2019-03-06T23:12:00.914Z,3.63
2019-03-06T23:14:31.348Z,3.40
2019-03-06T23:17:01.078Z,3.40
2019-03-06T23:19:31.778Z,3.33
2019-03-06T23:22:01.055Z,3.47
2019-03-06T23:24:30.657Z,3.87
2019-03-06T23:26:59.895Z,3.80
2019-03-06T23:29:31.949Z,3.73
2019-03-06T23:32:01.190Z,3.47
2019-03-06T23:34:30.482Z,3.47
2019-03-06T23:36:59.714Z,3.20
2019-03-06T23:39:28.931Z,3.30
2019-03-06T23:41:58.365Z,3.30
2019-03-06T23:44:27.881Z,3.50
2019-03-06T23:46:57.309Z,3.43
2019-03-06T23:49:26.524Z,3.47
2019-03-06T23:52:10.258Z,3.17
2019-03-06T23:54:39.645Z,3.40
2019-03-06T23:57:08.937Z,3.63
2019-03-06T23:59:38.978Z,3.73
